Time;durP1;ratioP1;P1;durP2;ratioP2;P2;SDS_P1;SDS_P2;PMS_P1;PMS_P2;Temp;Humidity;BMP_temperature;BMP_pressure;BME280_temperature;BME280_humidity;BME280_pressure;Samples;Min_cycle;Max_cycle;Signal;HPM_P1;HPM_P2
2024/01/14 00:01:42;;;;;;;43.47;40.80;;;;;;;4.91;66.23;101603.94;5024659;28;20021;-72
2024/01/14 00:04:07;;;;;;;45.00;42.15;;;;;;;4.93;66.34;101607.22;5035542;28;20043;-73
2024/01/14 00:06:32;;;;;;;43.05;40.45;;;;;;;4.94;66.01;101600.06;4997728;28;20034;-73
2024/01/14 00:08:58;;;;;;;55.10;49.53;;;;;;;4.94;66.46;101589.34;5015060;28;20532;-72
2024/01/14 00:11:23;;;;;;;39.70;37.28;;;;;;;4.94;66.53;101590.19;5014160;28;20168;-74
2024/01/14 00:13:48;;;;;;;38.35;35.80;;;;;;;4.93;66.16;101595.69;5036665;28;20079;-72
2024/01/14 00:16:14;;;;;;;48.53;44.83;;;;;;;4.92;66.09;101586.84;5033048;28;20458;-74
2024/01/14 00:18:39;;;;;;;41.30;38.30;;;;;;;4.90;66.32;101591.53;5034640;28;20112;-72
2024/01/14 00:21:05;;;;;;;41.53;38.97;;;;;;;4.90;66.48;101583.50;5045214;28;20155;-73
2024/01/14 00:23:30;;;;;;;40.30;37.75;;;;;;;4.87;66.21;101575.84;5029834;28;20030;-72
2024/01/14 00:25:56;;;;;;;46.20;43.40;;;;;;;4.86;66.44;101579.53;5014810;28;20117;-74
2024/01/14 00:28:21;;;;;;;47.22;44.25;;;;;;;4.87;66.37;101573.19;5015281;28;20033;-74
2024/01/14 00:30:46;;;;;;;46.15;42.60;;;;;;;4.87;66.16;101575.84;5043150;28;20048;-74
2024/01/14 00:33:12;;;;;;;55.95;51.28;;;;;;;4.87;66.55;101559.78;5045831;28;20036;-72
2024/01/14 00:35:37;;;;;;;48.97;45.55;;;;;;;4.88;66.27;101557.94;5020287;28;20378;-72
2024/01/14 00:38:03;;;;;;;43.38;40.90;;;;;;;4.87;66.28;101550.94;5021517;28;20089;-72
2024/01/14 00:40:29;;;;;;;48.17;43.95;;;;;;;4.87;66.18;101534.88;5013395;28;20050;-72
2024/01/14 00:42:55;;;;;;;42.15;39.60;;;;;;;4.85;66.49;101535.06;5019155;28;20038;-73
2024/01/14 00:45:21;;;;;;;48.85;45.85;;;;;;;4.85;66.63;101536.91;5041789;28;20392;-72
2024/01/14 00:47:46;;;;;;;39.03;36.95;;;;;;;4.86;66.37;101538.56;5022693;28;20042;-72
2024/01/14 00:50:12;;;;;;;51.22;47.50;;;;;;;4.84;66.32;101544.09;5014267;28;20037;-72
2024/01/14 00:52:37;;;;;;;45.42;42.30;;;;;;;4.84;66.34;101536.09;5014668;28;20038;-72
2024/01/14 00:55:03;;;;;;;41.47;38.45;;;;;;;4.87;66.50;101537.56;5037211;28;20110;-73
2024/01/14 00:57:28;;;;;;;45.50;41.67;;;;;;;4.87;66.30;101534.88;5013448;28;20073;-73
2024/01/14 00:59:55;;;;;;;46.00;43.03;;;;;;;4.88;66.61;101534.66;5014520;28;20466;-73
2024/01/14 01:02:20;;;;;;;48.10;44.42;;;;;;;4.87;66.25;101529.53;5014041;28;20105;-72
2024/01/14 01:04:46;;;;;;;51.38;46.80;;;;;;;4.86;66.35;101523.31;5048705;28;20123;-73
2024/01/14 01:07:11;;;;;;;46.55;42.60;;;;;;;4.85;66.49;101519.00;5026071;28;20514;-73
2024/01/14 01:09:37;;;;;;;41.28;38.78;;;;;;;4.87;66.17;101516.97;5013706;28;20033;-73
2024/01/14 01:12:02;;;;;;;46.72;43.40;;;;;;;4.87;66.44;101518.81;5013633;28;20394;-72
2024/01/14 01:14:27;;;;;;;50.13;46.28;;;;;;;4.88;66.19;101525.81;5033523;28;20040;-72
2024/01/14 01:16:53;;;;;;;53.42;47.92;;;;;;;4.87;66.29;101522.31;5021420;28;20053;-72
2024/01/14 01:19:19;;;;;;;50.13;46.08;;;;;;;4.89;66.28;101511.41;5018842;28;20212;-72
2024/01/14 01:21:44;;;;;;;41.28;39.00;;;;;;;4.88;66.52;101512.44;5012670;28;20042;-74
2024/01/14 01:24:12;;;;;;;44.50;41.70;;;;;;;4.88;66.32;101502.56;5033278;28;20057;-71
2024/01/14 01:26:37;;;;;;;45.00;41.72;;;;;;;4.88;66.39;101510.59;5032933;28;20482;-72
2024/01/14 01:29:03;;;;;;;45.90;41.83;;;;;;;4.87;66.13;101508.94;5013317;28;20121;-72
2024/01/14 01:31:28;;;;;;;39.63;37.03;;;;;;;4.88;66.38;101505.22;5030602;28;20067;-72
2024/01/14 01:33:54;;;;;;;41.40;39.25;;;;;;;4.87;66.28;101505.44;5032898;28;20033;-71
2024/01/14 01:36:20;;;;;;;37.30;35.05;;;;;;;4.86;66.50;101501.06;5026823;28;20037;-72
2024/01/14 01:38:45;;;;;;;41.85;39.08;;;;;;;4.87;66.56;101495.53;5022982;28;20048;-72
2024/01/14 01:41:11;;;;;;;43.53;40.58;;;;;;;4.87;66.28;101497.41;5017425;28;20049;-72
2024/01/14 01:43:36;;;;;;;45.47;42.22;;;;;;;4.85;66.29;101492.22;5024937;28;20036;-72
2024/01/14 01:46:02;;;;;;;40.47;37.97;;;;;;;4.86;66.31;101487.69;5032929;28;20041;-72
2024/01/14 01:48:28;;;;;;;51.05;45.90;;;;;;;4.86;66.48;101490.38;5030591;28;20026;-72
2024/01/14 01:50:54;;;;;;;39.20;36.88;;;;;;;4.87;66.21;101484.00;5053461;28;20411;-72
2024/01/14 01:53:20;;;;;;;50.88;46.13;;;;;;;4.87;66.32;101482.16;5016852;28;20528;-72
2024/01/14 01:55:46;;;;;;;48.42;44.47;;;;;;;4.86;66.28;101479.66;4995991;28;20114;-72
2024/01/14 01:58:12;;;;;;;40.03;36.78;;;;;;;4.85;66.20;101480.69;5019917;28;20041;-71
2024/01/14 02:00:38;;;;;;;46.53;43.22;;;;;;;4.84;66.47;101481.69;5028884;28;20042;-72
2024/01/14 02:03:05;;;;;;;43.65;39.97;;;;;;;4.83;66.30;101480.88;5031023;28;20022;-72
2024/01/14 02:05:34;;;;;;;46.63;43.35;;;;;;;4.83;66.33;101480.03;5031535;28;20067;-72
2024/01/14 02:07:59;;;;;;;48.70;44.85;;;;;;;4.83;66.33;101472.00;5027826;28;20044;-72
2024/01/14 02:10:25;;;;;;;47.70;44.58;;;;;;;4.83;66.10;101474.69;5012593;28;20029;-72
2024/01/14 02:12:50;;;;;;;40.47;38.17;;;;;;;4.83;66.30;101472.00;5012788;28;20025;-71
2024/01/14 02:15:16;;;;;;;44.47;41.67;;;;;;;4.82;66.59;101465.84;5012502;28;20390;-72
2024/01/14 02:17:41;;;;;;;44.83;41.35;;;;;;;4.82;66.26;101470.38;5020072;28;20037;-72
2024/01/14 02:20:08;;;;;;;46.58;42.85;;;;;;;4.83;66.27;101463.97;5032764;28;20429;-72
2024/01/14 02:22:38;;;;;;;42.65;39.38;;;;;;;4.83;66.08;101464.81;5022120;28;20040;-72
2024/01/14 02:25:04;;;;;;;53.90;49.40;;;;;;;4.84;66.62;101470.97;5012741;28;20063;-72
2024/01/14 02:27:29;;;;;;;42.92;39.67;;;;;;;4.84;66.28;101468.31;5024297;28;20056;-72
2024/01/14 02:29:56;;;;;;;38.45;36.25;;;;;;;4.84;66.40;101463.81;5019632;28;20069;-72
2024/01/14 02:32:21;;;;;;;54.92;49.75;;;;;;;4.85;66.31;101464.63;5027803;28;20053;-72
2024/01/14 02:34:47;;;;;;;44.05;41.33;;;;;;;4.85;66.53;101476.16;5011384;28;20053;-71
2024/01/14 02:37:13;;;;;;;51.85;47.03;;;;;;;4.87;66.18;101476.00;5023163;28;20080;-73
2024/01/14 02:39:38;;;;;;;41.97;39.92;;;;;;;4.87;66.36;101467.97;5036562;28;20516;-73
2024/01/14 02:42:04;;;;;;;41.58;39.42;;;;;;;4.85;66.17;101462.78;5032361;28;20033;-72
2024/01/14 02:44:30;;;;;;;44.78;41.47;;;;;;;4.84;66.47;101453.09;5045732;28;20072;-72
2024/01/14 02:46:55;;;;;;;53.58;48.05;;;;;;;4.84;66.37;101461.13;5028343;28;20030;-72
2024/01/14 02:49:21;;;;;;;44.65;41.80;;;;;;;4.85;66.28;101457.41;5031638;28;20037;-72
2024/01/14 02:51:46;;;;;;;45.28;42.15;;;;;;;4.84;66.30;101449.56;5036375;28;20021;-71
2024/01/14 02:54:12;;;;;;;44.60;41.40;;;;;;;4.82;66.47;101443.59;5016640;28;20366;-72
2024/01/14 02:56:38;;;;;;;44.50;41.83;;;;;;;4.82;66.31;101444.41;5012370;28;20042;-72
2024/01/14 02:59:04;;;;;;;43.85;41.45;;;;;;;4.81;66.28;101439.25;5030303;28;20033;-72
2024/01/14 03:01:30;;;;;;;48.83;45.40;;;;;;;4.80;66.46;101437.59;5036772;28;20037;-71
2024/01/14 03:03:55;;;;;;;42.67;40.05;;;;;;;4.79;66.28;101431.41;5012013;28;20055;-71
2024/01/14 03:06:20;;;;;;;43.70;40.58;;;;;;;4.78;66.32;101427.88;5011843;28;20084;-72
2024/01/14 03:08:46;;;;;;;46.97;44.05;;;;;;;4.80;66.61;101427.72;5010836;28;20030;-71
2024/01/14 03:11:11;;;;;;;46.72;43.33;;;;;;;4.80;66.52;101424.22;5035445;28;20037;-71
2024/01/14 03:13:36;;;;;;;41.28;39.15;;;;;;;4.80;66.66;101416.19;5030182;28;20029;-71
2024/01/14 03:16:02;;;;;;;43.20;39.78;;;;;;;4.81;66.27;101401.78;5024515;28;20375;-72
2024/01/14 03:18:27;;;;;;;46.10;42.88;;;;;;;4.80;66.45;101402.81;5010618;28;20026;-72
2024/01/14 03:20:53;;;;;;;42.33;40.03;;;;;;;4.80;66.51;101397.44;5021068;28;20128;-71
2024/01/14 03:23:18;;;;;;;40.45;38.45;;;;;;;4.78;66.57;101387.75;5031634;28;20030;-71
2024/01/14 03:25:43;;;;;;;46.15;42.53;;;;;;;4.80;66.26;101392.09;5013751;28;20164;-72
2024/01/14 03:28:09;;;;;;;42.30;39.88;;;;;;;4.79;66.45;101377.88;5011864;28;20033;-72
2024/01/14 03:30:34;;;;;;;48.38;45.25;;;;;;;4.78;66.22;101379.72;5019014;28;20045;-71
2024/01/14 03:33:00;;;;;;;44.92;41.63;;;;;;;4.77;66.36;101382.59;5022188;28;20033;-71
2024/01/14 03:35:25;;;;;;;49.33;44.78;;;;;;;4.77;66.27;101386.09;5015635;28;20038;-72
2024/01/14 03:37:51;;;;;;;39.55;37.42;;;;;;;4.77;66.48;101377.25;5042652;28;20052;-71
2024/01/14 03:40:18;;;;;;;39.65;37.55;;;;;;;4.77;66.52;101370.03;5037026;28;20137;-72
2024/01/14 03:42:43;;;;;;;46.78;43.78;;;;;;;4.76;66.32;101372.88;5032267;28;20032;-72
2024/01/14 03:45:08;;;;;;;38.78;36.50;;;;;;;4.76;66.25;101372.88;5014847;28;20398;-72
2024/01/14 03:47:34;;;;;;;38.10;36.10;;;;;;;4.78;66.53;101368.19;5034443;28;20083;-72
2024/01/14 03:49:59;;;;;;;51.65;48.00;;;;;;;4.78;66.52;101362.84;5012762;28;20038;-71
2024/01/14 03:52:25;;;;;;;39.15;37.03;;;;;;;4.77;66.46;101353.97;5020191;28;20033;-71
2024/01/14 03:54:51;;;;;;;39.33;36.88;;;;;;;4.77;66.38;101359.34;5032694;28;20033;-72
2024/01/14 03:57:17;;;;;;;41.28;38.72;;;;;;;4.77;66.67;101350.47;5030826;28;20032;-72
2024/01/14 03:59:43;;;;;;;46.28;43.65;;;;;;;4.76;66.11;101351.47;5028973;28;20042;-72
2024/01/14 04:02:08;;;;;;;48.60;45.10;;;;;;;4.74;66.35;101351.69;5011830;28;20112;-71
2024/01/14 04:04:33;;;;;;;45.30;42.20;;;;;;;4.73;66.50;101360.72;5034293;28;20038;-71
2024/01/14 04:06:59;;;;;;;46.92;43.72;;;;;;;4.72;66.27;101358.25;5026861;28;20240;-72
2024/01/14 04:09:24;;;;;;;55.90;51.15;;;;;;;4.71;66.28;101362.78;5030573;28;20045;-72
2024/01/14 04:11:50;;;;;;;51.58;47.78;;;;;;;4.70;66.36;101357.59;4997120;28;20037;-71
2024/01/14 04:14:15;;;;;;;48.80;45.63;;;;;;;4.68;66.42;101360.44;5044394;28;20037;-71
2024/01/14 04:16:41;;;;;;;42.05;39.72;;;;;;;4.66;66.24;101356.31;5029692;28;20099;-71
2024/01/14 04:19:07;;;;;;;44.40;41.22;;;;;;;4.64;66.53;101345.81;5030199;28;20026;-71
2024/01/14 04:21:33;;;;;;;42.50;39.63;;;;;;;4.63;66.46;101338.78;5026446;28;20041;-71
2024/01/14 04:23:59;;;;;;;44.13;41.40;;;;;;;4.64;66.30;101348.47;5029378;28;20029;-72
2024/01/14 04:26:25;;;;;;;41.45;38.47;;;;;;;4.64;66.46;101348.47;5029024;28;20033;-72
2024/01/14 04:28:51;;;;;;;39.97;37.22;;;;;;;4.65;66.33;101347.44;5029964;28;20083;-72
2024/01/14 04:31:18;;;;;;;43.97;41.28;;;;;;;4.66;66.60;101345.59;5031506;28;20406;-71
2024/01/14 04:33:44;;;;;;;40.40;38.00;;;;;;;4.66;66.38;101334.91;5028530;28;20121;-71
2024/01/14 04:36:09;;;;;;;41.15;39.05;;;;;;;4.68;66.61;101338.22;5032380;28;20083;-72
2024/01/14 04:38:35;;;;;;;44.50;41.35;;;;;;;4.69;66.28;101331.88;5031994;28;20033;-72
2024/01/14 04:41:01;;;;;;;44.78;41.08;;;;;;;4.67;66.21;101321.34;5035114;28;20055;-72
2024/01/14 04:43:26;;;;;;;40.50;38.15;;;;;;;4.66;66.27;101325.06;5035142;28;20037;-72
2024/01/14 04:45:52;;;;;;;45.95;42.47;;;;;;;4.65;66.29;101326.03;5015092;28;20435;-72
2024/01/14 04:48:17;;;;;;;51.13;47.50;;;;;;;4.64;66.36;101327.06;5014551;28;20030;-72
2024/01/14 04:50:42;;;;;;;44.92;42.03;;;;;;;4.63;66.28;101328.06;5017107;28;20045;-72
2024/01/14 04:53:08;;;;;;;48.88;45.30;;;;;;;4.61;66.37;101326.59;5016598;28;20112;-71
2024/01/14 04:55:34;;;;;;;45.88;42.65;;;;;;;4.61;66.49;101324.78;5034990;28;20076;-71
2024/01/14 04:57:59;;;;;;;44.00;41.17;;;;;;;4.61;66.23;101323.94;5039456;28;20041;-71
2024/01/14 05:00:26;;;;;;;43.53;39.92;;;;;;;4.61;66.40;101319.44;5033620;28;20041;-72
2024/01/14 05:02:51;;;;;;;46.25;43.40;;;;;;;4.61;66.51;101314.09;5034770;28;20029;-71
2024/01/14 05:05:17;;;;;;;47.50;44.05;;;;;;;4.59;66.35;101302.75;5017604;28;20035;-71
2024/01/14 05:07:43;;;;;;;40.08;37.92;;;;;;;4.57;66.33;101296.75;5027334;28;20030;-71
2024/01/14 05:10:09;;;;;;;40.92;38.33;;;;;;;4.58;66.34;101292.22;5014386;28;20601;-71
2024/01/14 05:12:34;;;;;;;48.83;44.78;;;;;;;4.57;66.65;101294.06;5017772;28;20101;-71
2024/01/14 05:15:00;;;;;;;43.50;40.58;;;;;;;4.57;66.29;101287.91;5040024;28;20550;-71
2024/01/14 05:17:26;;;;;;;41.15;38.42;;;;;;;4.56;66.34;101289.72;5023077;28;20072;-72
2024/01/14 05:19:51;;;;;;;41.13;38.72;;;;;;;4.55;66.23;101280.88;5041482;28;20375;-71
2024/01/14 05:22:17;;;;;;;38.40;36.33;;;;;;;4.55;66.23;101288.06;5031396;28;20037;-72
2024/01/14 05:24:43;;;;;;;41.30;38.20;;;;;;;4.55;66.30;101286.22;5039460;28;20400;-72
2024/01/14 05:27:11;;;;;;;43.13;40.70;;;;;;;4.55;66.42;101282.72;5025678;28;20034;-72
2024/01/14 05:29:42;;;;;;;45.42;42.20;;;;;;;4.55;66.31;101272.84;5032928;28;20036;-72
2024/01/14 05:32:10;;;;;;;39.42;37.42;;;;;;;4.55;66.47;101280.03;5013486;28;20022;-72
2024/01/14 05:34:35;;;;;;;42.08;39.72;;;;;;;4.57;66.44;101282.53;5035586;28;20400;-72
2024/01/14 05:37:01;;;;;;;45.47;42.50;;;;;;;4.57;66.42;101275.34;5045916;28;20029;-72
2024/01/14 05:39:27;;;;;;;45.58;42.83;;;;;;;4.57;66.31;101269.97;5015785;28;20473;-72
2024/01/14 05:41:52;;;;;;;41.47;39.05;;;;;;;4.58;66.32;101265.47;5012909;28;20554;-72
2024/01/14 05:44:18;;;;;;;47.75;44.25;;;;;;;4.56;66.23;101262.97;5037514;28;20410;-72
2024/01/14 05:46:43;;;;;;;46.72;43.97;;;;;;;4.57;66.20;101259.28;5025694;28;20063;-72
2024/01/14 05:49:09;;;;;;;41.03;38.40;;;;;;;4.56;66.36;101257.59;5012837;28;20053;-72
2024/01/14 05:51:34;;;;;;;44.22;41.63;;;;;;;4.56;66.26;101257.59;5013303;28;20429;-72
2024/01/14 05:54:00;;;;;;;43.72;40.83;;;;;;;4.55;66.50;101259.47;5032506;28;20076;-72
2024/01/14 05:56:26;;;;;;;47.30;43.53;;;;;;;4.53;66.14;101253.47;5046670;28;20032;-72
2024/01/14 05:58:52;;;;;;;47.88;44.28;;;;;;;4.52;66.36;101254.50;5012957;28;20109;-72
2024/01/14 06:01:17;;;;;;;40.85;37.83;;;;;;;4.52;66.38;101254.50;5026861;28;20532;-71
2024/01/14 06:03:42;;;;;;;46.35;43.10;;;;;;;4.52;66.33;101253.69;5028912;28;20044;-72
2024/01/14 06:06:08;;;;;;;38.80;36.80;;;;;;;4.52;66.49;101259.03;5028043;28;20109;-72
2024/01/14 06:08:33;;;;;;;36.70;34.63;;;;;;;4.52;66.35;101256.34;5024643;28;20036;-71
2024/01/14 06:11:01;;;;;;;39.35;37.15;;;;;;;4.51;66.28;101252.00;5018435;28;20045;-70
2024/01/14 06:13:27;;;;;;;41.78;38.97;;;;;;;4.50;66.35;101248.50;5013292;28;20057;-72
2024/01/14 06:15:52;;;;;;;42.70;40.30;;;;;;;4.50;66.27;101250.34;5044289;28;20492;-72
2024/01/14 06:18:18;;;;;;;44.55;41.28;;;;;;;4.49;66.35;101240.69;5032518;28;20062;-72
2024/01/14 06:20:43;;;;;;;43.00;40.78;;;;;;;4.48;66.53;101231.00;5041915;28;20371;-73
2024/01/14 06:23:08;;;;;;;39.97;37.75;;;;;;;4.49;66.42;101227.31;5030944;28;20040;-72
2024/01/14 06:25:34;;;;;;;38.55;36.65;;;;;;;4.48;66.41;101226.47;5033493;28;20077;-72
2024/01/14 06:28:02;;;;;;;44.70;41.30;;;;;;;4.49;66.27;101227.31;5028547;28;20429;-71
2024/01/14 06:30:27;;;;;;;39.28;37.15;;;;;;;4.48;66.21;101225.63;5028636;28;20076;-72
2024/01/14 06:32:56;;;;;;;40.70;38.40;;;;;;;4.48;66.32;101221.09;5030299;28;20100;-71
2024/01/14 06:35:21;;;;;;;37.90;35.78;;;;;;;4.49;66.33;101224.63;5026187;28;20040;-72
2024/01/14 06:37:47;;;;;;;43.60;40.92;;;;;;;4.47;66.45;101213.28;5020429;28;20381;-71
2024/01/14 06:40:13;;;;;;;40.00;37.78;;;;;;;4.47;66.33;101221.31;5046078;28;20057;-72
2024/01/14 06:42:38;;;;;;;41.67;39.03;;;;;;;4.48;66.54;101213.09;5042103;28;20473;-76
2024/01/14 06:45:04;;;;;;;39.63;37.33;;;;;;;4.47;66.38;101214.13;5031951;28;20037;-71
2024/01/14 06:47:30;;;;;;;37.15;35.03;;;;;;;4.49;66.17;101208.59;5027453;28;20026;-72
2024/01/14 06:49:55;;;;;;;40.05;37.85;;;;;;;4.50;66.38;101205.69;5029531;28;20037;-71
2024/01/14 06:52:22;;;;;;;41.20;39.20;;;;;;;4.49;66.26;101201.38;5030666;28;20485;-71
2024/01/14 06:54:49;;;;;;;43.83;41.03;;;;;;;4.51;65.99;101193.16;5033425;28;20032;-72
2024/01/14 06:57:15;;;;;;;41.17;38.78;;;;;;;4.51;66.26;101193.16;5026739;28;20031;-71
2024/01/14 06:59:42;;;;;;;36.65;34.22;;;;;;;4.51;66.10;101191.31;5012568;28;20116;-71
2024/01/14 07:02:08;;;;;;;44.33;41.08;;;;;;;4.50;66.03;101194.19;5011227;28;20470;-71
2024/01/14 07:04:34;;;;;;;39.50;37.03;;;;;;;4.50;66.29;101188.81;5022003;28;20026;-71
2024/01/14 07:06:59;;;;;;;43.10;40.55;;;;;;;4.47;66.20;101184.69;5027170;28;20497;-71
2024/01/14 07:09:24;;;;;;;37.58;35.60;;;;;;;4.48;66.54;101182.84;5044996;28;20196;-71
2024/01/14 07:11:50;;;;;;;37.63;35.53;;;;;;;4.48;66.30;101172.13;5012355;28;20532;-71
2024/01/14 07:14:15;;;;;;;39.67;37.15;;;;;;;4.48;66.36;101180.97;5030410;28;20034;-72
2024/01/14 07:16:40;;;;;;;38.78;36.78;;;;;;;4.47;66.33;101176.66;5012316;28;20125;-71
2024/01/14 07:19:06;;;;;;;40.90;38.45;;;;;;;4.48;66.19;101174.81;5037511;28;20029;-71
2024/01/14 07:21:31;;;;;;;37.97;36.17;;;;;;;4.48;66.43;101185.50;5013868;28;20076;-71
2024/01/14 07:23:57;;;;;;;42.92;40.38;;;;;;;4.48;66.12;101183.66;5030223;28;20026;-72
2024/01/14 07:26:23;;;;;;;36.72;34.88;;;;;;;4.49;66.37;101184.50;5030801;28;20029;-71
2024/01/14 07:28:48;;;;;;;43.97;40.85;;;;;;;4.48;66.30;101183.66;5028043;28;20047;-72
2024/01/14 07:31:20;;;;;;;40.22;37.38;;;;;;;4.47;66.30;101181.19;5026643;28;20038;-71
2024/01/14 07:33:50;;;;;;;42.65;40.22;;;;;;;4.45;66.39;101178.69;5020214;28;20508;-71
2024/01/14 07:36:15;;;;;;;47.25;44.08;;;;;;;4.42;66.20;101179.09;5030035;28;20515;-71
2024/01/14 07:38:41;;;;;;;40.97;38.88;;;;;;;4.41;66.27;101174.78;5032063;28;20108;-71
2024/01/14 07:41:06;;;;;;;42.45;39.08;;;;;;;4.42;66.21;101192.47;5048045;28;20202;-72
2024/01/14 07:43:32;;;;;;;40.33;38.20;;;;;;;4.41;66.17;101182.78;5013292;28;20038;-71
2024/01/14 07:45:57;;;;;;;39.92;37.63;;;;;;;4.42;66.34;101184.44;5030567;28;20037;-71
2024/01/14 07:48:26;;;;;;;38.28;35.90;;;;;;;4.43;66.17;101186.06;5013965;28;20033;-72
2024/01/14 07:50:54;;;;;;;40.50;37.47;;;;;;;4.42;66.29;101181.75;5021957;28;20033;-72
2024/01/14 07:53:21;;;;;;;37.25;35.35;;;;;;;4.41;66.41;101185.47;5011840;28;20037;-72
2024/01/14 07:55:46;;;;;;;40.25;37.97;;;;;;;4.42;66.35;101178.25;5030037;28;20434;-72
2024/01/14 07:58:11;;;;;;;41.85;39.28;;;;;;;4.42;66.29;101172.91;5029875;28;20033;-71
2024/01/14 08:00:38;;;;;;;38.28;36.35;;;;;;;4.41;66.04;101172.09;5030580;28;20466;-73
2024/01/14 08:03:04;;;;;;;44.72;41.92;;;;;;;4.40;66.41;101165.06;5020580;28;20045;-74
2024/01/14 08:05:29;;;;;;;40.63;37.53;;;;;;;4.42;66.45;101172.91;4994253;28;20030;-74
2024/01/14 08:07:55;;;;;;;37.00;34.85;;;;;;;4.43;66.37;101170.03;5020862;28;20057;-72
2024/01/14 08:10:21;;;;;;;41.70;39.25;;;;;;;4.44;66.21;101177.06;5020450;28;20031;-73
2024/01/14 08:12:46;;;;;;;43.88;40.97;;;;;;;4.41;66.27;101174.78;5019723;28;20037;-72
2024/01/14 08:15:12;;;;;;;42.30;40.03;;;;;;;4.39;66.20;101170.63;5041867;28;20064;-73
2024/01/14 08:17:37;;;;;;;39.65;37.05;;;;;;;4.39;66.12;101178.66;5025503;28;20459;-72
2024/01/14 08:20:05;;;;;;;44.30;41.10;;;;;;;4.38;66.31;101174.31;5034250;28;20029;-73
2024/01/14 08:22:31;;;;;;;37.65;35.67;;;;;;;4.37;66.10;101176.16;5030263;28;20226;-72
2024/01/14 08:24:56;;;;;;;43.85;41.10;;;;;;;4.39;66.30;101167.97;5018872;28;20095;-72
2024/01/14 08:27:21;;;;;;;42.95;39.78;;;;;;;4.39;66.39;101173.31;5015569;28;20026;-72
2024/01/14 08:29:47;;;;;;;36.67;34.83;;;;;;;4.38;66.42;101177.81;5015057;28;20052;-72
2024/01/14 08:32:12;;;;;;;37.40;34.83;;;;;;;4.38;66.25;101175.13;5017749;28;20092;-73
2024/01/14 08:34:39;;;;;;;40.78;38.20;;;;;;;4.39;66.29;101170.63;5013921;28;20046;-72
2024/01/14 08:37:04;;;;;;;40.47;37.67;;;;;;;4.39;66.43;101166.09;5032207;28;20029;-71
2024/01/14 08:39:30;;;;;;;46.72;43.33;;;;;;;4.41;66.20;101157.88;5033964;28;20131;-71
2024/01/14 08:41:56;;;;;;;41.55;38.83;;;;;;;4.39;66.42;101166.09;5040066;28;20496;-72
2024/01/14 08:44:21;;;;;;;40.38;37.90;;;;;;;4.41;66.48;101163.22;5042925;28;20041;-72
2024/01/14 08:46:48;;;;;;;41.85;38.78;;;;;;;4.41;66.37;101164.06;5038428;28;20523;-71
2024/01/14 08:49:16;;;;;;;38.78;35.78;;;;;;;4.40;66.20;101165.06;5017130;28;20323;-72
2024/01/14 08:51:42;;;;;;;39.17;36.60;;;;;;;4.41;66.40;101166.75;5031358;28;20029;-72
2024/01/14 08:54:07;;;;;;;39.53;36.70;;;;;;;4.40;66.36;101172.28;5041110;28;20397;-71
2024/01/14 08:56:33;;;;;;;37.78;35.67;;;;;;;4.39;66.33;101165.28;5035461;28;20539;-72
2024/01/14 08:58:58;;;;;;;40.55;38.08;;;;;;;4.38;66.16;101167.09;5018517;28;20065;-72
2024/01/14 09:01:24;;;;;;;36.45;34.65;;;;;;;4.37;66.41;101165.47;5027696;28;20032;-72
2024/01/14 09:03:50;;;;;;;41.17;38.95;;;;;;;4.38;66.40;101169.78;5027160;28;20060;-74
2024/01/14 09:06:16;;;;;;;36.53;34.30;;;;;;;4.37;66.46;101167.31;5033154;28;20070;-73
2024/01/14 09:08:42;;;;;;;39.25;37.35;;;;;;;4.36;66.44;101160.28;5022662;28;20091;-73
2024/01/14 09:11:07;;;;;;;46.38;43.33;;;;;;;4.36;66.32;101160.28;5025346;28;20034;-72
2024/01/14 09:13:33;;;;;;;40.55;37.78;;;;;;;4.37;66.64;101164.63;5031097;28;20469;-71
2024/01/14 09:15:59;;;;;;;41.20;37.92;;;;;;;4.36;66.44;101153.13;5038409;28;20091;-70
2024/01/14 09:18:25;;;;;;;41.53;39.00;;;;;;;4.37;66.54;101159.28;5032549;28;20113;-72
2024/01/14 09:20:51;;;;;;;41.10;38.78;;;;;;;4.36;66.31;101150.44;5029785;28;20075;-72
2024/01/14 09:23:16;;;;;;;39.42;36.83;;;;;;;4.35;66.54;101146.09;5028974;28;20034;-72
2024/01/14 09:25:41;;;;;;;36.53;34.50;;;;;;;4.37;66.64;101141.38;5014192;28;20037;-71
2024/01/14 09:28:07;;;;;;;39.10;37.05;;;;;;;4.39;66.50;101135.84;5012140;28;20101;-72
2024/01/14 09:30:32;;;;;;;34.60;32.85;;;;;;;4.39;66.49;101136.69;5045830;28;20033;-72
2024/01/14 09:32:58;;;;;;;40.80;38.50;;;;;;;4.39;66.43;101138.53;5018759;28;20526;-72
2024/01/14 09:35:24;;;;;;;40.42;38.10;;;;;;;4.39;66.52;101141.22;5025391;28;20021;-72
2024/01/14 09:37:50;;;;;;;42.65;40.00;;;;;;;4.40;66.31;101142.84;5035453;28;20389;-71
2024/01/14 09:40:18;;;;;;;42.17;39.30;;;;;;;4.40;66.25;101141.00;5030326;28;20058;-71
2024/01/14 09:42:45;;;;;;;43.22;39.95;;;;;;;4.41;66.19;101133.78;5019537;28;20065;-71
2024/01/14 09:45:10;;;;;;;40.50;38.00;;;;;;;4.42;66.18;101132.78;5038985;28;20038;-71
2024/01/14 09:47:37;;;;;;;35.65;33.47;;;;;;;4.40;66.33;101135.66;5026652;28;20029;-72
2024/01/14 09:50:03;;;;;;;44.83;41.63;;;;;;;4.43;66.39;101132.59;5028345;28;20045;-72
2024/01/14 09:52:31;;;;;;;40.45;37.70;;;;;;;4.41;66.44;101131.97;5012390;28;20037;-72
2024/01/14 09:54:57;;;;;;;41.35;38.85;;;;;;;4.40;66.33;101124.13;5022661;28;20025;-73
2024/01/14 09:57:23;;;;;;;44.13;41.10;;;;;;;4.39;66.60;101130.50;5031604;28;20132;-72
2024/01/14 09:59:50;;;;;;;38.95;36.63;;;;;;;4.37;66.40;101132.53;5016443;28;20029;-72
2024/01/14 10:02:16;;;;;;;43.30;40.72;;;;;;;4.36;66.39;101122.84;5011684;28;20483;-72
2024/01/14 10:04:42;;;;;;;43.20;40.80;;;;;;;4.36;66.67;101123.69;5025767;28;20048;-73
2024/01/14 10:07:08;;;;;;;40.72;38.05;;;;;;;4.36;66.78;101121.03;5056503;28;20402;-73
2024/01/14 10:09:34;;;;;;;39.15;36.72;;;;;;;4.34;66.31;101113.19;5028029;28;20466;-72
2024/01/14 10:11:59;;;;;;;41.13;38.45;;;;;;;4.35;66.57;101116.69;5031881;28;20041;-71
2024/01/14 10:14:29;;;;;;;40.63;38.13;;;;;;;4.36;66.90;101117.50;5041121;28;20033;-71
2024/01/14 10:16:55;;;;;;;38.70;36.15;;;;;;;4.36;66.61;101121.03;5020816;28;20458;-71
2024/01/14 10:19:22;;;;;;;45.63;42.17;;;;;;;4.37;66.74;101116.50;5033572;28;20090;-72
2024/01/14 10:21:47;;;;;;;41.90;39.70;;;;;;;4.37;66.61;101119.16;5045704;28;20117;-72
2024/01/14 10:24:13;;;;;;;40.63;37.78;;;;;;;4.39;66.64;101114.47;5033392;28;20184;-72
2024/01/14 10:26:41;;;;;;;41.03;38.22;;;;;;;4.39;66.33;101115.28;5035387;28;20033;-71
2024/01/14 10:29:07;;;;;;;36.17;34.05;;;;;;;4.41;66.56;101115.06;5027146;28;20030;-73
2024/01/14 10:31:32;;;;;;;41.65;39.38;;;;;;;4.43;66.46;101102.34;5024228;28;20145;-72
2024/01/14 10:34:00;;;;;;;41.33;38.92;;;;;;;4.44;66.46;101101.34;5029886;28;20554;-73
2024/01/14 10:36:28;;;;;;;49.75;46.05;;;;;;;4.45;66.50;101094.94;5032528;28;20038;-71
2024/01/14 10:38:57;;;;;;;37.83;35.53;;;;;;;4.46;66.21;101093.91;5023996;28;20048;-71
2024/01/14 10:41:23;;;;;;;38.05;35.60;;;;;;;4.47;66.34;101079.53;5028927;28;20143;-71
2024/01/14 10:43:48;;;;;;;46.33;42.78;;;;;;;4.48;66.22;101079.34;5023037;28;20390;-71
2024/01/14 10:46:15;;;;;;;42.35;39.53;;;;;;;4.48;66.45;101070.47;5027995;28;20057;-72
2024/01/14 10:48:41;;;;;;;38.30;36.28;;;;;;;4.49;66.24;101070.31;5029266;28;20505;-72
2024/01/14 10:51:10;;;;;;;42.92;40.22;;;;;;;4.52;66.50;101066.41;5021805;28;20038;-74
2024/01/14 10:53:52;;;;;;;40.63;38.45;;;;;;;4.50;66.40;101061.25;5025178;28;20061;-72
2024/01/14 10:56:24;;;;;;;44.90;41.53;;;;;;;4.51;66.30;101067.41;5015440;28;20401;-72
2024/01/14 10:58:53;;;;;;;40.15;37.95;;;;;;;4.49;66.13;101053.44;5020060;28;20030;-71
2024/01/14 11:01:20;;;;;;;45.58;39.15;;;;;;;4.49;66.18;101054.25;5045756;28;20386;-71
2024/01/14 11:03:47;;;;;;;43.88;41.65;;;;;;;4.48;66.49;101054.44;5011773;28;20040;-71
2024/01/14 11:06:13;;;;;;;40.67;38.30;;;;;;;4.48;66.42;101046.41;5031910;28;20021;-72
2024/01/14 11:08:39;;;;;;;42.60;40.42;;;;;;;4.47;66.51;101040.25;5029422;28;20033;-72
2024/01/14 11:11:05;;;;;;;48.40;44.80;;;;;;;4.48;66.50;101038.38;5035111;28;20075;-72